Weather observations for the past three days for
Pikeville Pike County Airport and Hatcher Field
Imperial (Metric)
Date Time (edt) Wind (mph) Vis. (mi.) Weather Sky Cond. Temperature (ºF) Relative Humidity Wind Chill (°F) Heat Index (°F) Pressure Precipitation (in)
Air Dwpt 6 hour altimeter (in) sea level (mb) 1 hr 3 hr 6 hr
Max. Min.
09 12:35 SW 3 10.00 Overcast SCT034 OVC080 64.9 48 54% 29.88 0.0
09 12:15 SW 3 10.00 Mostly Cloudy SCT080 BKN110 65.8 49.3 55% 29.87 0.0
09 11:55 SW 6 10.00 Overcast BKN090 OVC110 63.1 48.2 58% 29.87 0.0
09 11:35 Calm 10.00 Mostly Cloudy BKN090 BKN120 63.5 48.6 58% 29.87 0.0
09 11:15 S 5 10.00 Partly Cloudy SCT120 61.3 48.6 63% 29.86 0.0
09 10:55 S 5 10.00 Mostly Cloudy BKN110 59.4 47.1 64% 29.86 0.0
09 10:35 S 3 10.00 Mostly Cloudy BKN110 59 46.2 63% 29.87 0.0
09 10:15 S 3 10.00 Overcast OVC110 57.4 45.5 65% 29.87 0.0
09 09:55 S 3 10.00 Mostly Cloudy BKN110 57.7 45 63% 29.87 0.0
09 09:35 SE 6 10.00 Mostly Cloudy SCT040 BKN120 56.3 43.2 62% 29.84 0.0
09 09:15 Calm 10.00 Partly Cloudy SCT120 56.5 43.5 62% 29.86 0.0
09 08:55 SE 3 10.00 Fair CLR 56.3 43.5 62% 29.85 0.0
09 08:35 S 5 10.00 Fair CLR 56.3 42.8 61% 29.86 0.0
09 08:15 Calm 10.00 Fair CLR 54 41 62% 29.85 0.0
09 07:55 E 6 10.00 Fair CLR 52.2 40.3 55.9 52 64% 29.85 0.0
09 07:35 SE 5 10.00 Fair CLR 52.7 40.1 62% 29.86 0.0
09 07:15 SE 5 10.00 Partly Cloudy SCT120 53.4 39.2 59% 29.86 0.0
09 06:55 S 3 10.00 Fair CLR 52.7 39 60% 29.86 0.0
09 06:35 SE 3 10.00 Fair CLR 52.2 38.5 60% 29.85 0.0
09 06:15 SE 3 10.00 Fair CLR 52.7 38.3 58% 29.86 0.0
09 05:55 S 3 10.00 Fair CLR 53.2 37.4 55% 29.86 0.0
09 05:35 Calm 10.00 Partly Cloudy SCT120 54 36.9 53% 29.86 0.0
09 05:15 Calm 10.00 Overcast OVC120 54.5 36.7 51% 29.86 0.0
09 04:55 Calm 10.00 Mostly Cloudy BKN110 54.3 36.5 51% 29.86 0.0
09 04:35 SE 5 10.00 Fair CLR 53.8 36 51% 29.86 0.0
09 04:15 SE 3 10.00 Fair CLR 54.5 35.6 49% 29.86 0.0
09 03:55 Calm 10.00 Fair CLR 55 35.6 48% 29.86 0.0
09 03:35 Calm 10.00 Fair CLR 54.9 35.2 48% 29.86 0.0
09 03:15 SE 3 10.00 Fair CLR 54.9 35.1 47% 29.86 0.0
09 02:55 S 3 10.00 Fair CLR 55.4 34.9 46% 29.87 0.0
09 02:35 SE 3 10.00 Fair CLR 55.4 34.5 45% 29.87 0.0
09 02:15 Calm 10.00 Fair CLR 55.2 34.5 46% 29.87 0.0
09 01:55 S 7 10.00 Fair CLR 56.1 34 66 55.6 43% 29.87 0.0
09 01:35 S 7 10.00 Fair CLR 56.3 34.2 43% 29.87 0.0
09 01:15 S 6 10.00 Fair CLR 55.9 35.1 46% 29.88 0.0
09 00:55 SE 6 10.00 Fair CLR 56.5 35.6 46% 29.87 0.0
09 00:35 SE 6 10.00 Fair CLR 56.8 35.8 45% 29.88 0.0
09 00:15 S 5 10.00 Fair CLR 57.2 36.1 45% 29.88 0.0
08 23:55 SE 6 10.00 Fair CLR 57.6 36.7 46% 29.88 0.0
08 23:35 Calm 10.00 Fair CLR 58.3 35.6 43% 29.89 0.0
08 23:15 Calm 10.00 Fair CLR 60.3 33.8 37% 29.89 0.0
08 22:55 Calm 10.00 Fair CLR 59.9 34.7 39% 29.9 0.0
08 22:35 S 3 10.00 Fair CLR 61 33.8 36% 29.9 0.0
08 22:15 Calm 10.00 Fair CLR 61.2 34 36% 29.9 0.0
08 21:55 Calm 10.00 Partly Cloudy SCT120 62.8 32.7 32% 29.9 0.0
08 21:35 Calm 10.00 Partly Cloudy SCT120 63 32.2 32% 29.9 0.0
08 21:15 Calm 10.00 Fair CLR 62.6 32.9 33% 29.89 0.0
08 20:55 Calm 10.00 Fair CLR 63.9 32 30% 29.89 0.0
08 20:35 SW 3 10.00 Fair CLR 64.4 32.2 30% 29.89 0.0
08 20:15 Calm 10.00 Fair CLR 64.8 34 32% 29.89 0.0
08 19:55 Calm 10.00 Fair CLR 66.2 34 69.6 65.5 30% 29.89 0.0
08 19:35 Calm 10.00 Fair CLR 67.1 33.8 29% 29.89 0.0
08 18:55 SW 3 10.00 Fair CLR 68.2 35.4 30% 29.9 0.0
08 18:35 Calm 10.00 Fair CLR 68.9 36 30% 29.9 0.0
08 18:15 SW 6 10.00 Fair CLR 68.7 35.1 29% 29.89 0.0
08 17:55 S 3 10.00 Fair CLR 69.3 35.2 29% 29.89 0.0
08 17:35 S 3 10.00 Fair CLR 68.7 35.2 29% 29.89 0.0
08 17:15 SW 6 10.00 Fair CLR 69.1 35.6 29% 29.9 0.0
08 16:55 SW 6 10.00 Fair CLR 69.3 35.4 29% 29.91 0.0
08 16:35 SW 7 10.00 Fair CLR 68.7 34.9 29% 29.92 0.0
08 16:15 SW 3 10.00 Fair CLR 68.5 34.3 28% 29.93 0.0
08 15:35 S 6 10.00 Partly Cloudy SCT070 68.4 37.2 32% 29.96 0.0
08 15:15 Calm 10.00 Fair CLR 67.6 36 31% 29.96 0.0
08 14:55 SW 5 10.00 Fair CLR 67.1 36.1 32% 29.98 0.0
08 14:35 SW 6 10.00 Fair CLR 67.5 37 33% 29.98 0.0
08 14:15 W 5 10.00 Fair CLR 66.7 35.4 31% 29.99 0.0
08 13:35 SW 7 10.00 Fair CLR 65.7 36.1 34% 30 0.0
08 13:15 SW 7 10.00 Fair CLR 64.8 36.1 35% 30.02 0.0
08 12:55 S 5 10.00 Fair CLR 63.5 34.5 34% 30.03 0.0
08 12:35 SW 3 10.00 Fair CLR 63.7 38.5 40% 30.04 0.0
08 12:15 Calm 10.00 Fair CLR 62.1 37.4 40% 30.05 0.0
08 11:55 S 5 10.00 Fair CLR 61.9 38.5 42% 30.06 0.0
08 11:35 SW 3 10.00 Fair CLR 60.1 36.3 41% 30.06 0.0
08 11:15 S 5 10.00 Fair CLR 59.2 36.5 43% 30.06 0.0
08 10:55 SW 3 10.00 Fair CLR 57.6 39.4 51% 30.06 0.0
08 10:35 S 3 10.00 Fair CLR 55.8 40.8 57% 30.06 0.0
08 10:15 S 5 10.00 Fair CLR 53.6 41.4 63% 30.06 0.0
08 09:35 S 5 10.00 Fair CLR 49.5 40.3 71% 48 30.05 0.0
08 09:15 S 5 10.00 Fair CLR 47.3 39.2 74% 46 30.06 0.0
08 08:55 S 6 10.00 Fair CLR 45.1 41 86% 43 30.05 0.0
08 08:35 S 6 10.00 Fair CLR 43.7 41.2 91% 41 30.05 0.0
08 08:15 S 5 10.00 Fair CLR 42.3 41.9 99% 40 30.06 0.0
08 07:55 S 6 10.00 Fair CLR 41.4 41 46.9 39.4 99% 38 30.04 0.0
08 07:35 S 6 10.00 Fair CLR 41 40.5 98% 38 30.04 0.0
08 07:15 S 3 10.00 Fair CLR 39.9 39.4 98% 30.04 0.0
08 06:55 S 6 10.00 Fair CLR 39.4 39.2 99% 36 30.03 0.0
08 06:35 S 6 10.00 Fair CLR 40.5 39.9 98% 37 30.02 0.0
08 06:15 S 5 10.00 Fair CLR 41.2 40.6 98% 39 30.02 0.0
08 05:55 SE 6 10.00 Fair CLR 41.5 40.8 97% 38 30.02 0.0
08 05:35 S 6 10.00 Fair CLR 42.1 41.2 97% 39 30.02 0.0
08 05:15 S 6 10.00 Fair CLR 42.3 41.2 96% 39 30.02 0.0
08 04:55 S 5 10.00 Fair CLR 42.4 41.4 96% 40 30.02 0.0
08 04:35 S 5 10.00 Fair CLR 41.7 40.8 97% 39 30.01 0.0
08 04:15 S 3 10.00 Fair CLR 45 36.5 72% 30.01 0.0
08 03:55 Calm 10.00 Fair CLR 46.4 35.2 65% 30.01 0.0
08 03:35 S 3 10.00 Fair CLR 45.5 36.7 71% 30.02 0.0
08 03:15 S 5 10.00 Fair CLR 44.6 37.4 76% 43 30.01 0.0
08 02:55 S 5 10.00 Fair CLR 44.6 37.4 76% 43 30.01 0.0
08 02:35 SE 3 10.00 Fair CLR 45.5 36.1 70% 30.01 0.0
08 02:15 S 3 10.00 Fair CLR 46.8 35.1 64% 30.01 0.0
08 01:55 Calm 10.00 Fair CLR 45.9 36 57.4 45.3 68% 30.02 0.0
08 01:35 Calm 10.00 Fair CLR 46.9 33.4 60% 30.02 0.0
08 01:15 Calm 10.00 Fair CLR 48.4 31.8 53% 30.02 0.0
08 00:55 NW 3 10.00 Fair CLR 50.2 30.7 47% 30.01 0.0
08 00:35 NW 6 10.00 Fair CLR 50.5 30.9 47% 30.01 0.0
08 00:15 N 6 10.00 Fair CLR 50.2 31.1 48% 30 0.0
07 23:55 NW 3 10.00 Fair CLR 51.3 30.6 45% 30 0.0
07 23:35 NW 6 10.00 Fair CLR 51.6 30.4 44% 30.01 0.0
07 23:15 NW 3 10.00 Fair CLR 52 30.7 44% 30 0.0
07 22:55 NW 5 10.00 Fair CLR 51.3 31.1 46% 30 0.0
07 22:35 NW 3 10.00 Fair CLR 52.5 31.1 44% 29.99 0.0
07 22:15 NW 5 10.00 Fair CLR 52.2 31.6 46% 29.99 0.0
07 21:55 NW 5 10.00 Fair CLR 52.7 31.6 45% 29.98 0.0
07 21:35 NW 5 10.00 Fair CLR 52.9 32 45% 29.97 0.0
07 21:15 W 5 10.00 Fair CLR 53.6 32.4 45% 29.96 0.0
07 20:55 NW 5 10.00 Fair CLR 53.8 33.1 46% 29.96 0.0
07 20:35 NW 5 10.00 Fair CLR 54.7 33.1 44% 29.95 0.0
07 20:15 NW 7 10.00 Fair CLR 56.1 33.3 42% 29.95 0.0
07 19:55 W 9 10.00 Fair CLR 57.4 32.9 63.5 57.4 40% 29.94 0.0
07 19:35 NW 8 10.00 Fair CLR 58.8 34.7 40% 29.94 0.0
07 19:15 NW 8 10.00 Partly Cloudy SCT060 59.9 34 38% 29.94 0.0
07 18:55 NW 13 G 16 10.00 Partly Cloudy SCT060 59.9 35.8 41% 29.94 0.0
07 18:35 W 13 10.00 Fair CLR 61.2 36.7 40% 29.93 0.0
07 18:15 W 10 10.00 Partly Cloudy SCT060 61.9 37.2 40% 29.93 0.0
07 17:55 W 12 10.00 Partly Cloudy SCT060 62.2 36.9 39% 29.92 0.0
07 17:35 W 9 10.00 Overcast OVC060 62.8 37.9 40% 29.91 0.0
07 17:15 NW 3 10.00 Mostly Cloudy BKN050 BKN065 61.3 38.7 43% 29.91 0.0
07 16:55 W 5 10.00 Partly Cloudy SCT048 SCT065 62.8 40.3 44% 29.9 0.0
07 16:35 W 9 10.00 Partly Cloudy SCT060 62.4 41.7 47% 29.9 0.0
07 16:15 Calm 10.00 Mostly Cloudy SCT042 BKN050 60.1 42.3 52% 29.91 0.0
07 15:55 Calm 10.00 Overcast BKN042 OVC050 59 41.4 52% 29.91 0.0
07 15:35 Calm 10.00 Mostly Cloudy BKN041 BKN047 60.6 41.7 50% 29.92 0.0
07 15:15 W 7 10.00 Mostly Cloudy BKN042 BKN048 60.4 42.1 51% 29.92 0.0
07 14:55 W 8 10.00 Mostly Cloudy BKN040 BKN048 BKN060 59.2 41.2 51% 29.93 0.0
07 14:35 SW 5 10.00 Partly Cloudy SCT042 SCT050 59.7 43.2 54% 29.94 0.0
07 14:15 W 6 10.00 Overcast OVC040 57.4 42.4 58% 29.94 0.0
07 13:55 Calm 10.00 Overcast SCT035 OVC049 57.9 40.6 59.7 49.1 53% 29.95 0.0
07 13:35 W 3 10.00 Overcast SCT039 OVC047 57.4 42.3 57% 29.95 0.0
07 13:15 NW 6 10.00 Overcast OVC039 55.6 41.7 60% 29.96 0.0
07 12:55 NW 6 10.00 Overcast OVC037 55.4 41.4 59% 29.96 0.0
07 12:35 NW 3 10.00 Overcast BKN034 OVC042 55.6 41 58% 29.96 0.0
07 12:15 N 5 10.00 Overcast BKN034 OVC044 56.1 41.7 59% 29.96 0.0
07 11:55 N 3 10.00 Overcast SCT032 SCT040 OVC046 55.2 42.1 61% 29.96 0.0
07 11:35 Calm 10.00 Overcast SCT032 SCT040 OVC048 54.5 41.2 61% 29.96 0.0
07 11:15 NE 5 10.00 Overcast OVC048 54.5 42.1 63% 29.96 0.0
07 10:55 NE 6 10.00 Overcast OVC048 53.2 42.3 66% 29.96 0.0
07 10:35 Calm 10.00 Overcast OVC046 52.3 43.7 73% 29.96 0.0
07 10:15 N 3 10.00 Overcast OVC046 52.2 46 80% 29.96 0.0
07 09:55 N 3 10.00 Overcast OVC046 51.3 47.5 87% 29.96 0.0
07 09:35 N 3 10.00 Overcast OVC046 51.1 49.6 95% 29.96 0.0
07 09:15 N 3 10.00 Overcast OVC046 50.5 49.8 97% 29.97 0.0
07 08:55 N 3 10.00 Overcast OVC044 50 49.5 98% 29.96 0.0
07 08:35 Calm 10.00 Overcast OVC042 49.6 49.1 98% 29.96 0.0
07 08:15 Calm 10.00 Overcast OVC040 49.5 48.9 98% 29.97 0.0
07 07:55 Calm 10.00 Overcast OVC038 49.3 48.9 52.7 48.6 99% 29.97 0.0
07 07:35 Calm 10.00 Overcast OVC040 48.6 48.2 99% 29.96 0.0
07 07:15 Calm 10.00 Overcast OVC038 49.1 48.4 97% 29.95 0.0
07 06:55 Calm 10.00 Overcast OVC034 48.7 48.4 99% 29.95 0.0
07 06:35 Calm 10.00 Overcast OVC032 48.7 48.2 98% 29.94 0.0
07 06:15 NW 3 10.00 Overcast OVC032 48.7 48.4 99% 29.95 0.0
07 05:55 NW 3 10.00 Overcast SCT002 OVC030 48.7 48.2 98% 29.95 0.0
07 05:35 NW 3 10.00 Overcast SCT002 OVC028 49.1 48.6 98% 29.93 0.0
07 05:15 Calm 10.00 Overcast OVC026 48.7 48.2 98% 29.94 0.0
07 04:55 Calm 10.00 Overcast OVC026 48.7 48.2 98% 29.95 0.0
07 04:35 Calm 10.00 Overcast OVC024 48.6 48.2 99% 29.94 0.0
07 04:15 Calm 10.00 Overcast OVC024 48.6 48.2 99% 29.94 0.0
07 03:55 NE 6 10.00 Overcast OVC022 48.7 48.2 98% 47 29.94 0.0
07 03:15 N 7 10.00 Overcast SCT005 OVC018 49.1 48.6 98% 47 29.94 0.0
07 02:55 N 8 10.00 Overcast BKN005 OVC014 49.5 49.1 99% 47 29.94 0.0
07 02:35 N 7 7.00 Light Drizzle OVC005 52 51.4 98% 29.94 0.0
07 02:15 NW 6 10.00 Overcast BKN003 OVC008 52.5 51.8 97% 29.94 0.0
07 01:55 NW 5 10.00 Overcast OVC003 52.7 52.2 53.6 52.7 98% 29.95 0.0 0.05
07 01:35 Calm 1.25 Fog/Mist OVC003 52.7 52.3 99% 29.96 0.0
07 01:15 Calm 7.00 Overcast BKN003 OVC018 52.7 52.2 98% 29.94 0.0
07 00:55 Calm 10.00 Overcast BKN003 OVC028 52.7 52.2 98% 29.95 0.0 0.01
07 00:35 Calm 10.00 Overcast BKN003 OVC026 52.9 52.3 98% 29.95 0.0
07 00:15 Calm 2.00 Fog/Mist OVC003 52.9 52.3 98% 29.95 0.0
06 23:55 Calm 3.00 Fog/Mist BKN003 OVC018 52.9 52.3 98% 29.96 0.0
06 23:35 Calm 3.00 Fog/Mist BKN003 BKN009 OVC017 53.1 52.5 98% 29.96 0.0
06 23:15 NW 3 10.00 Overcast OVC003 52.9 52.3 98% 29.95 0.0
06 22:55 NW 5 10.00 Overcast BKN003 OVC006 52.9 52.3 98% 29.94 0.0 0.04
06 22:35 NW 7 10.00 Light Drizzle OVC003 53.1 52.7 99% 29.94 0.0
06 22:15 SE 5 10.00 Light Rain BKN003 OVC007 53.1 52.5 98% 29.91 0.0
06 21:55 W 3 7.00 Drizzle OVC003 53.1 52.7 99% 29.97 0.0 0.02
06 21:35 W 5 1.50 Light Rain OVC003 53.2 52.7 98% 29.98 0.0 0.01
06 21:15 W 7 0.50 Light Rain OVC003 53.6 52.9 97% 29.96 0.0
06 20:55 Calm 0.50 Light Rain OVC003 53.4 52.7 97% 29.94 0.0 0.02
06 20:35 W 3 0.75 Light Drizzle OVC003 53.6 52.9 97% 29.94 0.0 0.01
06 20:15 Calm 1.50 Heavy Rain OVC003 53.2 52.7 98% 29.92 0.0 0.01
06 19:55 N 3 1.75 Drizzle OVC003 53.6 52.9 58.1 53.4 97% 29.92 0.0 0.01 0.07
06 19:35 Calm 1.00 Drizzle OVC003 53.8 53.2 98% 29.92 0.0
06 19:15 Calm 0.50 Light Drizzle OVC003 54 53.6 99% 29.91 0.0
06 18:55 Calm 1.25 Light Drizzle OVC003 54.1 53.6 98% 29.91 0.0 0.01
06 18:35 NW 5 1.50 Drizzle OVC003 54.5 53.8 97% 29.93 0.0
06 18:15 NW 6 1.50 Drizzle OVC003 54.5 54 98% 29.92 0.0
06 17:55 NW 5 3.00 Drizzle OVC003 54.9 54.3 98% 29.9 0.0
06 17:35 N 5 10.00 Overcast OVC003 54.7 54.1 98% 29.91 0.0
06 17:15 N 5 5.00 Fog/Mist OVC003 55 54.5 98% 29.89 0.0
06 16:55 NW 5 4.00 Light Drizzle OVC003 55.4 54.9 98% 29.9 0.0 0.01 0.04
06 16:35 N 3 2.50 Drizzle OVC003 55.4 54.9 98% 29.9 0.0 0.01
06 16:15 NW 5 2.00 Drizzle OVC003 55.8 55.2 98% 29.91 0.0
06 15:55 W 5 1.50 Drizzle OVC003 56.1 55.4 97% 29.9 0.0 0.03
06 15:35 W 6 1.00 Drizzle OVC003 56.3 55.8 98% 29.9 0.0 0.02
06 15:15 W 5 1.50 Drizzle OVC003 57.2 56.5 97% 29.89 0.0 0.01
06 14:55 W 6 1.75 Drizzle OVC005 56.8 56.3 98% 29.88 0.0
06 14:35 NW 10 3.00 Light Rain BKN005 OVC008 56.5 56.1 99% 29.88 0.0
06 14:15 N 6 7.00 Overcast OVC003 57 56.5 98% 29.88 0.0
06 13:55 NW 8 10.00 Light Drizzle OVC003 58.1 57.6 63.1 58.1 98% 29.88 0.0 0.02 0.08
06 13:35 NW 9 7.00 Light Rain OVC003 59.7 59.2 98% 29.87 0.0 0.02
06 13:15 SW 6 7.00 Drizzle OVC005 62.6 62.1 98% 29.87 0.0
06 12:55 SW 5 7.00 Drizzle SCT003 OVC010 62.6 62.1 98% 29.87 0.0 0.01
Date Time (edt) Wind (mph) Vis. (mi.) Weather Sky Cond. Air Dwpt Max. Min. Relative Humidity Wind Chill (°F) Heat Index (°F) altimeter (in) sea level (mb) 1 hr 3 hr 6 hr
6 hour
Temperature (ºF) Pressure Precipitation (in)